createdAt,value
2018-03-23T00:00:27.238Z,1016.78
2018-03-23T00:01:27.244Z,1016.76
2018-03-23T00:02:27.256Z,1016.75
2018-03-23T00:03:27.262Z,1016.71
2018-03-23T00:04:27.261Z,1016.73
2018-03-23T00:05:27.285Z,1016.7
2018-03-23T00:06:27.281Z,1016.68
2018-03-23T00:07:27.281Z,1016.68
2018-03-23T00:08:27.270Z,1016.6
2018-03-23T00:09:27.270Z,1016.59
2018-03-23T00:10:27.267Z,1016.59
2018-03-23T00:11:27.278Z,1016.58
2018-03-23T00:12:27.273Z,1016.56
2018-03-23T00:13:27.280Z,1016.52
2018-03-23T00:14:27.306Z,1016.49
2018-03-23T00:15:27.286Z,1016.47
2018-03-23T00:16:27.292Z,1016.52
2018-03-23T00:17:27.320Z,1016.51
2018-03-23T00:18:27.292Z,1016.47
2018-03-23T00:19:27.316Z,1016.45
2018-03-23T00:20:27.304Z,1016.46
2018-03-23T00:21:27.326Z,1016.41
2018-03-23T00:22:27.337Z,1016.41
2018-03-23T00:23:27.308Z,1016.37
2018-03-23T00:24:27.306Z,1016.36
2018-03-23T00:25:27.311Z,1016.35
2018-03-23T00:26:27.341Z,1016.39
2018-03-23T00:27:27.317Z,1016.36
2018-03-23T00:28:27.330Z,1016.4
2018-03-23T00:29:27.341Z,1016.42
2018-03-23T00:30:27.334Z,1016.41
2018-03-23T00:31:27.360Z,1016.37
2018-03-23T00:32:27.370Z,1016.37
2018-03-23T00:33:27.351Z,1016.32
2018-03-23T00:34:27.359Z,1016.33
2018-03-23T00:35:27.358Z,1016.35
2018-03-23T00:36:27.352Z,1016.32
2018-03-23T00:37:27.383Z,1016.33
2018-03-23T00:38:27.361Z,1016.3
2018-03-23T00:39:27.394Z,1016.32
2018-03-23T00:40:27.364Z,1016.29
2018-03-23T00:41:27.369Z,1016.26
2018-03-23T00:42:27.414Z,1016.23
2018-03-23T00:43:27.364Z,1016.26
2018-03-23T00:44:27.378Z,1016.27
2018-03-23T00:45:27.377Z,1016.25
2018-03-23T00:46:27.377Z,1016.26
2018-03-23T00:47:27.387Z,1016.21
2018-03-23T00:48:27.371Z,1016.27
2018-03-23T00:49:27.426Z,1016.28
2018-03-23T00:50:27.379Z,1016.26
2018-03-23T00:51:27.386Z,1016.25
2018-03-23T00:52:27.383Z,1016.22
2018-03-23T00:53:27.405Z,1016.19
2018-03-23T00:54:27.387Z,1016.22
2018-03-23T00:55:27.398Z,1016.12
2018-03-23T00:56:27.406Z,1016.17
2018-03-23T00:57:27.389Z,1016.18
2018-03-23T00:58:27.418Z,1016.17
2018-03-23T00:59:27.529Z,1016.16
2018-03-23T01:00:27.409Z,1016.13
2018-03-23T01:01:27.401Z,1016.19
2018-03-23T01:02:27.406Z,1016.17
2018-03-23T01:03:27.475Z,1016.14
2018-03-23T01:04:27.414Z,1016.1
2018-03-23T01:05:27.421Z,1016.14
2018-03-23T01:06:27.488Z,1016.06
2018-03-23T01:07:27.418Z,1016.06
2018-03-23T01:08:27.445Z,1016.09
2018-03-23T01:09:27.637Z,1016.09
2018-03-23T01:10:27.434Z,1016.09
2018-03-23T01:11:27.438Z,1016.04
2018-03-23T01:12:27.441Z,1016.05
2018-03-23T01:13:27.466Z,1016.03
2018-03-23T01:14:27.444Z,1016
2018-03-23T01:15:27.463Z,1016.04
2018-03-23T01:16:27.455Z,1016.02
2018-03-23T01:17:27.464Z,1015.98
2018-03-23T01:18:27.481Z,1015.96
2018-03-23T01:19:27.465Z,1015.98
2018-03-23T01:20:27.468Z,1015.96
2018-03-23T01:21:27.467Z,1015.96
2018-03-23T01:22:27.463Z,1015.95
2018-03-23T01:23:27.495Z,1015.99
2018-03-23T01:24:27.495Z,1016.01
2018-03-23T01:25:27.481Z,1015.99
2018-03-23T01:26:27.482Z,1015.97
2018-03-23T01:27:27.478Z,1015.95
2018-03-23T01:28:27.502Z,1015.93
2018-03-23T01:29:27.485Z,1015.92
2018-03-23T01:30:27.495Z,1015.92
2018-03-23T01:31:27.512Z,1015.89
2018-03-23T01:32:27.502Z,1015.9
2018-03-23T01:33:27.531Z,1015.91
2018-03-23T01:34:27.512Z,1015.87
2018-03-23T01:35:27.504Z,1015.83
2018-03-23T01:36:27.549Z,1015.83
2018-03-23T01:37:27.505Z,1015.81
2018-03-23T01:38:27.529Z,1015.83
2018-03-23T01:39:27.542Z,1015.81
2018-03-23T01:40:27.504Z,1015.79
2018-03-23T01:41:27.516Z,1015.8
2018-03-23T01:42:27.524Z,1015.85
2018-03-23T01:43:27.526Z,1015.82
2018-03-23T01:44:27.549Z,1015.84
2018-03-23T01:45:27.541Z,1015.78
2018-03-23T01:46:27.525Z,1015.8
2018-03-23T01:47:27.532Z,1015.79
2018-03-23T01:48:27.558Z,1015.74
2018-03-23T01:49:27.530Z,1015.73
2018-03-23T01:50:27.553Z,1015.73
2018-03-23T01:51:31.653Z,1015.7
2018-03-23T01:52:27.566Z,1015.66
2018-03-23T01:53:27.550Z,1015.65
2018-03-23T01:54:27.551Z,1015.66
2018-03-23T01:55:27.568Z,1015.66
2018-03-23T01:56:27.557Z,1015.63
2018-03-23T01:57:27.564Z,1015.61
2018-03-23T01:58:27.580Z,1015.64
2018-03-23T01:59:27.588Z,1015.58
2018-03-23T02:00:27.579Z,1015.58
2018-03-23T02:01:27.581Z,1015.62
2018-03-23T02:02:27.595Z,1015.61
2018-03-23T02:03:27.579Z,1015.62
2018-03-23T02:04:27.608Z,1015.61
2018-03-23T02:05:27.602Z,1015.56
2018-03-23T02:06:27.603Z,1015.57
2018-03-23T02:07:27.607Z,1015.57
2018-03-23T02:08:27.600Z,1015.59
2018-03-23T02:09:27.634Z,1015.6
2018-03-23T02:10:27.607Z,1015.59
2018-03-23T02:11:27.622Z,1015.64
2018-03-23T02:12:27.623Z,1015.63
2018-03-23T02:13:27.635Z,1015.62
2018-03-23T02:14:27.655Z,1015.65
2018-03-23T02:15:27.629Z,1015.64
2018-03-23T02:16:27.636Z,1015.57
2018-03-23T02:17:27.661Z,1015.58
2018-03-23T02:18:27.646Z,1015.6
2018-03-23T02:19:27.644Z,1015.61
2018-03-23T02:20:27.656Z,1015.57
2018-03-23T02:21:27.668Z,1015.59
2018-03-23T02:22:27.655Z,1015.59
2018-03-23T02:23:27.661Z,1015.56
2018-03-23T02:24:27.703Z,1015.52
2018-03-23T02:25:27.690Z,1015.53
2018-03-23T02:26:27.673Z,1015.55
2018-03-23T02:27:27.676Z,1015.49
2018-03-23T02:28:27.684Z,1015.48
2018-03-23T02:29:27.689Z,1015.5
2018-03-23T02:30:27.720Z,1015.53
2018-03-23T02:31:27.715Z,1015.47
2018-03-23T02:32:27.703Z,1015.46
2018-03-23T02:33:27.705Z,1015.47
2018-03-23T02:34:27.709Z,1015.41
2018-03-23T02:35:27.714Z,1015.43
2018-03-23T02:36:27.726Z,1015.42
2018-03-23T02:37:27.730Z,1015.44
2018-03-23T02:38:27.741Z,1015.35
2018-03-23T02:39:27.751Z,1015.37
2018-03-23T02:40:27.778Z,1015.4
2018-03-23T02:41:27.787Z,1015.33
2018-03-23T02:42:27.754Z,1015.35
2018-03-23T02:43:27.749Z,1015.33
2018-03-23T02:44:27.753Z,1015.36
2018-03-23T02:45:27.801Z,1015.28
2018-03-23T02:46:27.757Z,1015.29
2018-03-23T02:47:27.749Z,1015.29
2018-03-23T02:48:27.751Z,1015.3
2018-03-23T02:49:27.769Z,1015.3
2018-03-23T02:50:27.763Z,1015.35
2018-03-23T02:51:27.790Z,1015.31
2018-03-23T02:52:27.784Z,1015.31
2018-03-23T02:53:27.782Z,1015.3
2018-03-23T02:54:27.785Z,1015.3
2018-03-23T02:55:28.113Z,1015.25
2018-03-23T02:56:27.789Z,1015.27
2018-03-23T02:57:27.794Z,1015.23
2018-03-23T02:58:27.802Z,1015.25
2018-03-23T02:59:27.805Z,1015.22
2018-03-23T03:00:27.830Z,1015.23
2018-03-23T03:01:27.802Z,1015.22
2018-03-23T03:02:27.808Z,1015.19
2018-03-23T03:03:27.804Z,1015.2
2018-03-23T03:04:27.816Z,1015.2
2018-03-23T03:05:27.812Z,1015.16
2018-03-23T03:06:27.845Z,1015.14
2018-03-23T03:07:27.825Z,1015.13
2018-03-23T03:08:27.813Z,1015.16
2018-03-23T03:09:27.820Z,1015.11
2018-03-23T03:10:27.827Z,1015.07
2018-03-23T03:11:27.835Z,1015.07
2018-03-23T03:12:27.841Z,1015.09
2018-03-23T03:13:27.848Z,1015.06
2018-03-23T03:14:27.840Z,1015.05
2018-03-23T03:15:27.855Z,1015.05
2018-03-23T03:16:27.846Z,1015.01
2018-03-23T03:17:27.861Z,1015.05
2018-03-23T03:18:27.856Z,1015.01
2018-03-23T03:19:27.873Z,1015.03
2018-03-23T03:20:27.863Z,1014.96
2018-03-23T03:21:27.864Z,1015
2018-03-23T03:22:27.867Z,1014.99
2018-03-23T03:23:27.873Z,1014.94
2018-03-23T03:24:27.880Z,1014.95
2018-03-23T03:25:27.876Z,1014.97
2018-03-23T03:26:27.886Z,1014.97
2018-03-23T03:27:27.881Z,1014.97
2018-03-23T03:28:27.888Z,1015.04
2018-03-23T03:29:27.891Z,1014.99
2018-03-23T03:30:27.890Z,1014.99
2018-03-23T03:31:27.947Z,1015.01
2018-03-23T03:32:27.900Z,1015.01
2018-03-23T03:33:27.914Z,1015
2018-03-23T03:34:27.914Z,1015
2018-03-23T03:35:27.920Z,1014.98
2018-03-23T03:36:27.922Z,1014.97
2018-03-23T03:37:27.923Z,1014.91
2018-03-23T03:38:27.963Z,1014.98
2018-03-23T03:39:27.946Z,1014.95
2018-03-23T03:40:27.939Z,1014.97
2018-03-23T03:41:27.940Z,1014.98
2018-03-23T03:42:27.942Z,1014.98
2018-03-23T03:43:27.950Z,1014.98
2018-03-23T03:44:27.992Z,1014.96
2018-03-23T03:45:27.949Z,1014.95
2018-03-23T03:46:27.957Z,1014.96
2018-03-23T03:47:27.950Z,1014.97
2018-03-23T03:48:27.954Z,1014.94
2018-03-23T03:49:27.981Z,1014.93
2018-03-23T03:50:27.960Z,1014.92
2018-03-23T03:51:27.965Z,1014.93
2018-03-23T03:52:27.979Z,1014.92
2018-03-23T03:53:27.968Z,1014.95
2018-03-23T03:54:27.972Z,1014.89
2018-03-23T03:55:27.974Z,1014.85
2018-03-23T03:56:27.980Z,1014.87
2018-03-23T03:57:28.165Z,1014.84
2018-03-23T03:58:27.986Z,1014.82
2018-03-23T03:59:28.007Z,1014.81
2018-03-23T04:00:27.996Z,1014.8
2018-03-23T04:01:27.997Z,1014.83
2018-03-23T04:02:28.019Z,1014.83
2018-03-23T04:03:28.010Z,1014.8
2018-03-23T04:04:28.020Z,1014.76
2018-03-23T04:05:28.047Z,1014.77
2018-03-23T04:06:28.038Z,1014.81
2018-03-23T04:07:28.303Z,1014.79
2018-03-23T04:08:28.021Z,1014.81
2018-03-23T04:09:28.039Z,1014.8
2018-03-23T04:10:28.042Z,1014.78
2018-03-23T04:11:28.084Z,1014.76
2018-03-23T04:12:28.056Z,1014.77
2018-03-23T04:13:28.065Z,1014.72
2018-03-23T04:14:28.054Z,1014.72
2018-03-23T04:15:28.041Z,1014.73
2018-03-23T04:16:28.051Z,1014.73
2018-03-23T04:17:28.068Z,1014.75
2018-03-23T04:18:28.063Z,1014.7
2018-03-23T04:19:28.062Z,1014.71
2018-03-23T04:20:28.078Z,1014.71
2018-03-23T04:21:28.072Z,1014.74
2018-03-23T04:22:28.079Z,1014.7
2018-03-23T04:23:28.076Z,1014.74
2018-03-23T04:24:28.084Z,1014.73
2018-03-23T04:25:28.089Z,1014.72
2018-03-23T04:26:28.120Z,1014.73
2018-03-23T04:27:28.118Z,1014.72
2018-03-23T04:28:28.097Z,1014.67
2018-03-23T04:29:28.107Z,1014.66
2018-03-23T04:30:28.105Z,1014.69
2018-03-23T04:31:28.108Z,1014.7
2018-03-23T04:32:28.107Z,1014.65
2018-03-23T04:33:28.144Z,1014.63
2018-03-23T04:34:28.126Z,1014.6
2018-03-23T04:35:28.129Z,1014.57
2018-03-23T04:36:28.135Z,1014.57
2018-03-23T04:37:28.145Z,1014.59
2018-03-23T04:38:28.188Z,1014.51
2018-03-23T04:39:28.157Z,1014.53
2018-03-23T04:40:28.159Z,1014.55
2018-03-23T04:41:28.162Z,1014.55
2018-03-23T04:42:28.183Z,1014.58
2018-03-23T04:43:28.171Z,1014.57
2018-03-23T04:44:28.165Z,1014.54
2018-03-23T04:45:28.162Z,1014.57
2018-03-23T04:46:28.169Z,1014.54
2018-03-23T04:47:28.514Z,1014.59
2018-03-23T04:48:28.174Z,1014.54
2018-03-23T04:49:28.181Z,1014.53
2018-03-23T04:50:28.173Z,1014.6
2018-03-23T04:51:28.179Z,1014.52
2018-03-23T04:52:28.221Z,1014.52
2018-03-23T04:53:28.185Z,1014.49
2018-03-23T04:54:28.224Z,1014.49
2018-03-23T04:55:28.190Z,1014.46
2018-03-23T04:56:28.196Z,1014.53
2018-03-23T04:57:28.202Z,1014.49
2018-03-23T04:58:28.211Z,1014.45
2018-03-23T04:59:28.256Z,1014.45
2018-03-23T05:00:28.224Z,1014.41
2018-03-23T05:01:28.228Z,1014.42
2018-03-23T05:02:28.236Z,1014.47
2018-03-23T05:03:28.394Z,1014.41
2018-03-23T05:04:28.236Z,1014.39
2018-03-23T05:05:28.238Z,1014.4
2018-03-23T05:06:28.256Z,1014.42
2018-03-23T05:07:28.246Z,1014.36
2018-03-23T05:08:28.271Z,1014.34
2018-03-23T05:09:28.261Z,1014.32
2018-03-23T05:10:28.249Z,1014.32
2018-03-23T05:11:28.253Z,1014.31
2018-03-23T05:12:28.253Z,1014.34
2018-03-23T05:13:28.302Z,1014.37
2018-03-23T05:14:28.258Z,1014.34
2018-03-23T05:15:28.272Z,1014.37
2018-03-23T05:16:28.280Z,1014.31
2018-03-23T05:17:28.284Z,1014.34
2018-03-23T05:18:28.316Z,1014.35
2018-03-23T05:19:28.299Z,1014.39
2018-03-23T05:20:28.306Z,1014.37
2018-03-23T05:21:28.298Z,1014.36
2018-03-23T05:22:28.289Z,1014.35
2018-03-23T05:23:28.300Z,1014.33
2018-03-23T05:24:28.295Z,1014.34
2018-03-23T05:25:28.303Z,1014.3
2018-03-23T05:26:28.304Z,1014.33
2018-03-23T05:27:28.357Z,1014.27
2018-03-23T05:28:28.313Z,1014.27
2018-03-23T05:29:28.318Z,1014.25
2018-03-23T05:30:28.313Z,1014.26
2018-03-23T05:31:28.344Z,1014.27
2018-03-23T05:32:28.347Z,1014.25
2018-03-23T05:33:28.328Z,1014.23
2018-03-23T05:34:28.351Z,1014.23
2018-03-23T05:35:28.333Z,1014.24
2018-03-23T05:36:28.335Z,1014.25
2018-03-23T05:37:28.334Z,1014.22
2018-03-23T05:38:28.363Z,1014.24
2018-03-23T05:39:28.415Z,1014.29
2018-03-23T05:40:28.366Z,1014.22
2018-03-23T05:41:28.389Z,1014.25
2018-03-23T05:42:28.356Z,1014.25
2018-03-23T05:43:28.372Z,1014.27
2018-03-23T05:44:28.360Z,1014.27
2018-03-23T05:45:28.363Z,1014.27
2018-03-23T05:46:28.368Z,1014.22
2018-03-23T05:47:28.365Z,1014.25
2018-03-23T05:48:28.416Z,1014.24
2018-03-23T05:49:28.380Z,1014.21
2018-03-23T05:50:28.399Z,1014.22
2018-03-23T05:51:28.385Z,1014.21
2018-03-23T05:52:28.379Z,1014.23
2018-03-23T05:53:28.407Z,1014.2
2018-03-23T05:54:28.388Z,1014.2
2018-03-23T05:55:28.424Z,1014.18
2018-03-23T05:56:28.412Z,1014.24
2018-03-23T05:57:28.398Z,1014.21
2018-03-23T05:58:28.434Z,1014.16
2018-03-23T05:59:28.408Z,1014.22
2018-03-23T06:00:28.413Z,1014.22
2018-03-23T06:01:28.436Z,1014.24
2018-03-23T06:02:28.432Z,1014.23
2018-03-23T06:03:28.427Z,1014.19
2018-03-23T06:04:28.436Z,1014.22
2018-03-23T06:05:28.440Z,1014.18
2018-03-23T06:06:28.530Z,1014.23
2018-03-23T06:07:28.504Z,1014.21
2018-03-23T06:08:28.448Z,1014.23
2018-03-23T06:09:28.683Z,1014.25
2018-03-23T06:10:28.475Z,1014.2
2018-03-23T06:11:28.455Z,1014.21
2018-03-23T06:12:28.451Z,1014.26
2018-03-23T06:13:28.454Z,1014.24
2018-03-23T06:14:28.473Z,1014.26
2018-03-23T06:15:28.482Z,1014.22
2018-03-23T06:16:28.479Z,1014.27
2018-03-23T06:17:28.458Z,1014.28
2018-03-23T06:18:28.461Z,1014.25
2018-03-23T06:19:28.469Z,1014.23
2018-03-23T06:20:28.500Z,1014.21
2018-03-23T06:21:28.473Z,1014.24
2018-03-23T06:22:28.480Z,1014.26
2018-03-23T06:23:28.484Z,1014.22
2018-03-23T06:24:28.492Z,1014.22
2018-03-23T06:25:28.512Z,1014.16
2018-03-23T06:26:28.498Z,1014.19
2018-03-23T06:27:28.515Z,1014.16
2018-03-23T06:28:28.505Z,1014.14
2018-03-23T06:29:28.514Z,1014.18
2018-03-23T06:30:28.538Z,1014.17
2018-03-23T06:31:28.533Z,1014.14
2018-03-23T06:32:28.534Z,1014.12
2018-03-23T06:33:28.589Z,1014.18
2018-03-23T06:34:28.529Z,1014.15
2018-03-23T06:35:28.817Z,1014.25
2018-03-23T06:36:28.525Z,1014.21
2018-03-23T06:37:28.553Z,1014.18
2018-03-23T06:38:28.594Z,1014.19
2018-03-23T06:39:28.547Z,1014.19
2018-03-23T06:40:28.572Z,1014.21
2018-03-23T06:41:28.599Z,1014.11
2018-03-23T06:42:28.558Z,1014.18
2018-03-23T06:43:28.555Z,1014.14
2018-03-23T06:44:28.561Z,1014.16
2018-03-23T06:45:28.559Z,1014.07
2018-03-23T06:46:28.549Z,1014.15
2018-03-23T06:47:28.564Z,1014.14
2018-03-23T06:48:28.576Z,1014.13
2018-03-23T06:49:28.566Z,1014.16
2018-03-23T06:50:28.584Z,1014.23
2018-03-23T06:51:28.577Z,1014.17
2018-03-23T06:52:28.565Z,1014.21
2018-03-23T06:53:28.575Z,1014.22
2018-03-23T06:54:28.671Z,1014.19
2018-03-23T06:55:28.610Z,1014.18
2018-03-23T06:56:28.585Z,1014.17
2018-03-23T06:57:28.583Z,1014.16
2018-03-23T06:58:28.580Z,1014.18
2018-03-23T06:59:28.594Z,1014.22
2018-03-23T07:00:28.618Z,1014.26
2018-03-23T07:01:28.657Z,1014.26
2018-03-23T07:02:28.615Z,1014.19
2018-03-23T07:03:28.609Z,1014.26
2018-03-23T07:04:28.614Z,1014.24
2018-03-23T07:05:28.638Z,1014.28
2018-03-23T07:06:28.608Z,1014.27
2018-03-23T07:07:28.617Z,1014.26
2018-03-23T07:08:28.628Z,1014.25
2018-03-23T07:09:28.642Z,1014.24
2018-03-23T07:10:28.627Z,1014.19
2018-03-23T07:11:28.920Z,1014.13
2018-03-23T07:12:28.636Z,1014.13
2018-03-23T07:13:28.643Z,1014.16
2018-03-23T07:14:28.653Z,1014.13
2018-03-23T07:15:28.660Z,1014.11
2018-03-23T07:16:28.692Z,1014.12
2018-03-23T07:17:28.665Z,1014.13
2018-03-23T07:18:28.662Z,1014.12
2018-03-23T07:19:28.676Z,1014.11
2018-03-23T07:20:28.683Z,1014.12
2018-03-23T07:21:28.699Z,1014.09
2018-03-23T07:22:28.675Z,1014.09
2018-03-23T07:23:28.689Z,1014.14
2018-03-23T07:24:28.685Z,1014.11
2018-03-23T07:25:28.703Z,1014.11
2018-03-23T07:26:28.697Z,1014.12
2018-03-23T07:27:28.709Z,1014.12
2018-03-23T07:28:28.703Z,1014.15
2018-03-23T07:29:28.706Z,1014.15
2018-03-23T07:30:28.712Z,1014.09
2018-03-23T07:31:28.708Z,1014.12
2018-03-23T07:32:28.737Z,1014.09
2018-03-23T07:33:28.715Z,1014.08
2018-03-23T07:34:28.720Z,1014.11
2018-03-23T07:35:28.713Z,1014.14
2018-03-23T07:36:28.726Z,1014.11
2018-03-23T07:37:28.758Z,1014.11
2018-03-23T07:38:28.735Z,1014.07
2018-03-23T07:39:28.754Z,1014.03
2018-03-23T07:40:28.743Z,1014.06
2018-03-23T07:41:28.776Z,1014.05
2018-03-23T07:42:28.786Z,1014.1
2018-03-23T07:43:28.809Z,1014.08
2018-03-23T07:44:28.765Z,1014.09
2018-03-23T07:45:28.760Z,1014.07
2018-03-23T07:46:28.770Z,1014.04
2018-03-23T07:47:28.778Z,1014.06
2018-03-23T07:48:28.815Z,1014.04
2018-03-23T07:49:28.781Z,1014.03
2018-03-23T07:50:28.787Z,1014.05
2018-03-23T07:51:28.784Z,1014.06
2018-03-23T07:52:28.814Z,1014.07
2018-03-23T07:53:28.873Z,1014.05
2018-03-23T07:54:28.799Z,1014.05
2018-03-23T07:55:28.825Z,1014
2018-03-23T07:56:28.818Z,1014.01
2018-03-23T07:57:29.107Z,1014.01
2018-03-23T07:58:28.814Z,1014.01
2018-03-23T07:59:28.819Z,1013.97
2018-03-23T08:00:28.829Z,1013.98
2018-03-23T08:01:28.834Z,1013.95
2018-03-23T08:02:28.871Z,1014.01
2018-03-23T08:03:28.821Z,1013.95
2018-03-23T08:04:28.833Z,1013.97
2018-03-23T08:05:28.827Z,1013.92
2018-03-23T08:06:28.826Z,1013.93
2018-03-23T08:07:29.101Z,1013.86
2018-03-23T08:08:28.846Z,1013.94
2018-03-23T08:09:28.869Z,1013.87
2018-03-23T08:10:28.855Z,1013.87
2018-03-23T08:11:28.852Z,1013.86
2018-03-23T08:12:28.890Z,1013.89
2018-03-23T08:13:28.870Z,1013.86
2018-03-23T08:14:28.851Z,1013.9
2018-03-23T08:15:28.898Z,1013.87
2018-03-23T08:16:28.927Z,1013.88
2018-03-23T08:17:28.926Z,1013.8
2018-03-23T08:18:28.876Z,1013.85
2018-03-23T08:19:29.006Z,1013.83
2018-03-23T08:20:28.884Z,1013.84
2018-03-23T08:21:28.885Z,1013.77
2018-03-23T08:22:28.893Z,1013.75
2018-03-23T08:23:28.892Z,1013.81
2018-03-23T08:24:28.918Z,1013.78
2018-03-23T08:25:28.897Z,1013.73
2018-03-23T08:26:28.895Z,1013.71
2018-03-23T08:27:28.916Z,1013.71
2018-03-23T08:28:28.919Z,1013.69
2018-03-23T08:29:28.935Z,1013.71
2018-03-23T08:30:28.915Z,1013.7
2018-03-23T08:31:28.915Z,1013.67
2018-03-23T08:32:28.913Z,1013.7
2018-03-23T08:33:28.907Z,1013.71
2018-03-23T08:34:28.916Z,1013.7
2018-03-23T08:35:28.917Z,1013.69
2018-03-23T08:36:28.928Z,1013.7
2018-03-23T08:37:28.953Z,1013.71
2018-03-23T08:38:28.926Z,1013.71
2018-03-23T08:39:28.938Z,1013.74
2018-03-23T08:40:28.929Z,1013.72
2018-03-23T08:41:28.930Z,1013.72
2018-03-23T08:42:28.931Z,1013.72
2018-03-23T08:43:28.937Z,1013.73
2018-03-23T08:44:29.047Z,1013.69
2018-03-23T08:45:28.942Z,1013.7
2018-03-23T08:46:28.959Z,1013.66
2018-03-23T08:47:28.989Z,1013.68
2018-03-23T08:48:28.954Z,1013.68
2018-03-23T08:49:28.955Z,1013.68
2018-03-23T08:50:28.980Z,1013.68
2018-03-23T08:51:28.984Z,1013.69
2018-03-23T08:52:28.990Z,1013.67
2018-03-23T08:53:29.058Z,1013.69
2018-03-23T08:54:28.979Z,1013.67
2018-03-23T08:55:28.987Z,1013.69
2018-03-23T08:56:28.995Z,1013.71
2018-03-23T08:57:28.988Z,1013.69
2018-03-23T08:58:29.025Z,1013.67
2018-03-23T08:59:28.994Z,1013.67
2018-03-23T09:00:28.988Z,1013.67
2018-03-23T09:01:29.000Z,1013.68
2018-03-23T09:02:29.007Z,1013.67
2018-03-23T09:03:29.142Z,1013.63
2018-03-23T09:04:29.010Z,1013.64
2018-03-23T09:05:29.043Z,1013.65
2018-03-23T09:06:29.016Z,1013.64
2018-03-23T09:07:29.011Z,1013.62
2018-03-23T09:08:29.044Z,1013.6
2018-03-23T09:09:29.021Z,1013.57
2018-03-23T09:10:29.029Z,1013.61
2018-03-23T09:11:29.047Z,1013.58
2018-03-23T09:12:29.041Z,1013.59
2018-03-23T09:13:29.052Z,1013.54
2018-03-23T09:14:29.031Z,1013.54
2018-03-23T09:15:29.042Z,1013.54
2018-03-23T09:16:29.049Z,1013.55
2018-03-23T09:17:29.048Z,1013.5
2018-03-23T09:18:29.060Z,1013.43
2018-03-23T09:19:29.073Z,1013.47
2018-03-23T09:20:29.132Z,1013.44
2018-03-23T09:21:29.054Z,1013.44
2018-03-23T09:22:29.057Z,1013.41
2018-03-23T09:23:29.106Z,1013.44
2018-03-23T09:24:29.065Z,1013.48
2018-03-23T09:25:29.088Z,1013.51
2018-03-23T09:26:29.082Z,1013.48
2018-03-23T09:27:29.080Z,1013.42
2018-03-23T09:28:29.120Z,1013.44
2018-03-23T09:29:29.092Z,1013.41
2018-03-23T09:30:29.099Z,1013.39
2018-03-23T09:31:29.103Z,1013.4
2018-03-23T09:32:29.095Z,1013.38
2018-03-23T09:33:29.396Z,1013.36
2018-03-23T09:34:29.110Z,1013.38
2018-03-23T09:35:29.108Z,1013.33
2018-03-23T09:36:29.103Z,1013.37
2018-03-23T09:37:29.106Z,1013.34
2018-03-23T09:38:29.282Z,1013.32
2018-03-23T09:39:29.129Z,1013.32
2018-03-23T09:40:29.121Z,1013.29
2018-03-23T09:41:29.133Z,1013.34
2018-03-23T09:42:29.137Z,1013.29
2018-03-23T09:43:29.172Z,1013.27
2018-03-23T09:44:29.155Z,1013.28
2018-03-23T09:45:29.145Z,1013.26
2018-03-23T09:46:29.154Z,1013.27
2018-03-23T09:47:29.142Z,1013.27
2018-03-23T09:48:29.171Z,1013.25
2018-03-23T09:49:29.158Z,1013.22
2018-03-23T09:50:29.142Z,1013.23
2018-03-23T09:51:29.138Z,1013.19
2018-03-23T09:52:29.150Z,1013.22
2018-03-23T09:53:29.159Z,1013.22
2018-03-23T09:54:29.153Z,1013.19
2018-03-23T09:55:29.151Z,1013.19
2018-03-23T09:56:29.157Z,1013.15
2018-03-23T09:57:29.158Z,1013.15
2018-03-23T09:58:29.342Z,1013.13
2018-03-23T09:59:29.171Z,1013.13
2018-03-23T10:00:29.169Z,1013.12
2018-03-23T10:01:29.189Z,1013.08
2018-03-23T10:02:29.166Z,1013.08
2018-03-23T10:03:29.215Z,1013.06
2018-03-23T10:04:29.203Z,1013.07
2018-03-23T10:05:29.276Z,1013.04
2018-03-23T10:06:29.168Z,1013.04
2018-03-23T10:07:29.179Z,1013.05
2018-03-23T10:08:29.183Z,1013.04
2018-03-23T10:09:29.211Z,1012.95
2018-03-23T10:10:29.201Z,1013
2018-03-23T10:11:29.206Z,1012.97
2018-03-23T10:12:29.209Z,1012.98
2018-03-23T10:13:29.199Z,1012.94
2018-03-23T10:14:29.243Z,1012.94
2018-03-23T10:15:29.291Z,1012.9
2018-03-23T10:16:29.214Z,1012.87
2018-03-23T10:17:29.245Z,1012.84
2018-03-23T10:18:29.219Z,1012.85
2018-03-23T10:19:29.241Z,1012.88
2018-03-23T10:20:29.221Z,1012.85
2018-03-23T10:21:29.285Z,1012.83
2018-03-23T10:22:29.259Z,1012.83
2018-03-23T10:23:29.245Z,1012.82
2018-03-23T10:24:29.260Z,1012.87
2018-03-23T10:25:29.242Z,1012.86
2018-03-23T10:26:29.252Z,1012.85
2018-03-23T10:27:29.248Z,1012.85
2018-03-23T10:28:29.263Z,1012.85
2018-03-23T10:29:29.278Z,1012.88
2018-03-23T10:30:29.252Z,1012.8
2018-03-23T10:31:29.267Z,1012.8
2018-03-23T10:32:29.264Z,1012.83
2018-03-23T10:33:29.270Z,1012.82
2018-03-23T10:34:29.264Z,1012.77
2018-03-23T10:35:29.381Z,1012.79
2018-03-23T10:36:29.265Z,1012.75
2018-03-23T10:37:29.296Z,1012.77
2018-03-23T10:38:29.276Z,1012.8
2018-03-23T10:39:29.299Z,1012.8
2018-03-23T10:40:29.303Z,1012.74
2018-03-23T10:41:29.288Z,1012.69
2018-03-23T10:42:29.294Z,1012.74
2018-03-23T10:43:29.593Z,1012.71
2018-03-23T10:44:29.297Z,1012.67
2018-03-23T10:45:29.297Z,1012.71
2018-03-23T10:46:29.303Z,1012.71
2018-03-23T10:47:29.321Z,1012.66
2018-03-23T10:48:29.322Z,1012.69
2018-03-23T10:49:29.313Z,1012.72
2018-03-23T10:50:29.305Z,1012.67
2018-03-23T10:51:29.320Z,1012.66
2018-03-23T10:52:29.328Z,1012.64
2018-03-23T10:53:29.456Z,1012.66
2018-03-23T10:54:29.328Z,1012.6
2018-03-23T10:55:29.319Z,1012.56
2018-03-23T10:56:29.329Z,1012.64
2018-03-23T10:57:29.332Z,1012.58
2018-03-23T10:58:29.356Z,1012.55
2018-03-23T10:59:29.326Z,1012.58
2018-03-23T11:00:29.338Z,1012.53
2018-03-23T11:01:29.375Z,1012.54
2018-03-23T11:02:29.347Z,1012.56
2018-03-23T11:03:29.388Z,1012.52
2018-03-23T11:04:29.364Z,1012.53
2018-03-23T11:05:29.359Z,1012.55
2018-03-23T11:06:29.401Z,1012.54
2018-03-23T11:07:29.376Z,1012.54
2018-03-23T11:08:29.388Z,1012.62
2018-03-23T11:09:29.392Z,1012.62
2018-03-23T11:10:29.382Z,1012.53
2018-03-23T11:11:29.381Z,1012.56
2018-03-23T11:12:29.387Z,1012.57
2018-03-23T11:13:29.392Z,1012.52
2018-03-23T11:14:29.660Z,1012.51
2018-03-23T11:15:29.403Z,1012.52
2018-03-23T11:16:29.410Z,1012.46
2018-03-23T11:17:29.405Z,1012.41
2018-03-23T11:18:29.410Z,1012.45
2018-03-23T11:19:29.439Z,1012.42
2018-03-23T11:20:29.414Z,1012.39
2018-03-23T11:21:29.435Z,1012.33
2018-03-23T11:22:29.445Z,1012.33
2018-03-23T11:23:29.449Z,1012.28
2018-03-23T11:24:29.581Z,1012.25
2018-03-23T11:25:29.416Z,1012.29
2018-03-23T11:26:29.423Z,1012.25
2018-03-23T11:27:29.438Z,1012.26
2018-03-23T11:28:29.466Z,1012.22
2018-03-23T11:29:29.457Z,1012.21
2018-03-23T11:30:29.454Z,1012.23
2018-03-23T11:31:29.453Z,1012.23
2018-03-23T11:32:29.467Z,1012.19
2018-03-23T11:33:29.464Z,1012.19
2018-03-23T11:34:29.467Z,1012.18
2018-03-23T11:35:29.492Z,1012.18
2018-03-23T11:36:29.480Z,1012.18
2018-03-23T11:37:29.482Z,1012.15
2018-03-23T11:38:29.484Z,1012.16
2018-03-23T11:39:29.486Z,1012.16
2018-03-23T11:40:29.516Z,1012.12
2018-03-23T11:41:29.510Z,1012.14
2018-03-23T11:42:29.507Z,1012.17
2018-03-23T11:43:29.495Z,1012.16
2018-03-23T11:44:29.498Z,1012.08
2018-03-23T11:45:29.517Z,1012.07
2018-03-23T11:46:29.501Z,1012.07
2018-03-23T11:47:29.514Z,1012.07
2018-03-23T11:48:29.522Z,1012.08
2018-03-23T11:49:29.525Z,1012.06
2018-03-23T11:50:29.573Z,1012.06
2018-03-23T11:51:29.570Z,1011.99
2018-03-23T11:52:29.557Z,1012.02
2018-03-23T11:53:29.544Z,1012.01
2018-03-23T11:54:29.575Z,1011.96
2018-03-23T11:55:29.583Z,1011.97
2018-03-23T11:56:29.682Z,1011.98
2018-03-23T11:57:29.591Z,1011.98
2018-03-23T11:58:29.574Z,1011.95
2018-03-23T11:59:29.586Z,1011.95
2018-03-23T12:00:29.577Z,1011.98
2018-03-23T12:01:29.602Z,1011.95
2018-03-23T12:02:29.575Z,1011.92
2018-03-23T12:03:29.570Z,1011.92
2018-03-23T12:04:29.579Z,1011.88
2018-03-23T12:05:29.600Z,1011.9
2018-03-23T12:06:29.584Z,1011.9
2018-03-23T12:07:29.705Z,1011.9